Time;durP1;ratioP1;P1;durP2;ratioP2;P2;SDS_P1;SDS_P2;PMS_P1;PMS_P2;Temp;Humidity;BMP_temperature;BMP_pressure;BME280_temperature;BME280_humidity;BME280_pressure;Samples;Min_cycle;Max_cycle;Signal;HPM_P1;HPM_P2
2020/12/29 00:01:41;;;;;;;20.33;11.15;;;;;;;;;;5026347;28;20033;-58
2020/12/29 00:04:14;;;;;;;19.38;11.68;;;;;;;;;;5027405;28;20571;-58
2020/12/29 00:06:44;;;;;;;23.55;11.93;;;;;;;;;;5027273;28;20069;-55
2020/12/29 00:09:10;;;;;;;22.27;12.55;;;;;;;;;;5026579;28;20029;-55
2020/12/29 00:11:36;;;;;;;21.20;12.15;;;;;;;;;;5024638;28;20040;-56
2020/12/29 00:14:02;;;;;;;32.78;16.65;;;;;;;;;;5016328;28;20060;-57
2020/12/29 00:16:29;;;;;;;24.98;13.82;;;;;;;;;;5026762;28;20022;-55
2020/12/29 00:18:55;;;;;;;25.95;13.75;;;;;;;;;;5026523;28;20029;-54
2020/12/29 00:21:21;;;;;;;24.48;12.93;;;;;;;;;;5027106;28;20173;-57
2020/12/29 00:23:47;;;;;;;25.63;13.57;;;;;;;;;;5027440;28;20045;-55
2020/12/29 00:26:14;;;;;;;24.60;13.25;;;;;;;;;;5026751;28;20033;-56
2020/12/29 00:28:40;;;;;;;23.63;14.00;;;;;;;;;;5027321;28;20033;-53
2020/12/29 00:31:06;;;;;;;24.77;13.30;;;;;;;;;;5026169;28;20443;-55
2020/12/29 00:33:32;;;;;;;23.88;12.98;;;;;;;;;;5031568;28;20029;-52
2020/12/29 00:35:58;;;;;;;23.25;13.52;;;;;;;;;;5047275;28;20039;-58
2020/12/29 00:38:24;;;;;;;25.92;14.18;;;;;;;;;;5037632;28;20021;-55
2020/12/29 00:40:50;;;;;;;23.80;13.32;;;;;;;;;;5025999;28;20057;-57
2020/12/29 00:43:16;;;;;;;23.40;13.27;;;;;;;;;;5011102;28;20045;-56
2020/12/29 00:45:42;;;;;;;26.45;12.80;;;;;;;;;;5018321;28;20384;-56
2020/12/29 00:48:08;;;;;;;22.13;12.85;;;;;;;;;;5026995;28;20650;-55
2020/12/29 00:50:34;;;;;;;23.48;12.30;;;;;;;;;;5025204;28;20025;-57
2020/12/29 00:53:00;;;;;;;21.15;11.75;;;;;;;;;;5026550;28;20030;-56
2020/12/29 00:55:26;;;;;;;21.50;13.13;;;;;;;;;;5026738;28;20028;-57
2020/12/29 00:57:52;;;;;;;24.27;13.02;;;;;;;;;;5026976;28;20164;-54
2020/12/29 01:00:18;;;;;;;21.08;12.85;;;;;;;;;;5026898;28;20030;-57
2020/12/29 01:02:43;;;;;;;28.98;13.68;;;;;;;;;;5025851;28;20025;-56
2020/12/29 01:05:10;;;;;;;23.90;13.98;;;;;;;;;;5027374;28;20064;-56
2020/12/29 01:07:39;;;;;;;22.17;12.85;;;;;;;;;;5030244;28;20021;-57
2020/12/29 01:10:05;;;;;;;23.58;13.27;;;;;;;;;;5030382;28;20511;-56
2020/12/29 01:12:31;;;;;;;25.23;14.13;;;;;;;;;;5024004;28;20121;-55
2020/12/29 01:14:57;;;;;;;24.98;13.98;;;;;;;;;;5029665;28;20120;-58
2020/12/29 01:17:23;;;;;;;23.35;13.00;;;;;;;;;;5030176;28;20116;-57
2020/12/29 01:19:49;;;;;;;25.02;14.27;;;;;;;;;;5030262;28;20040;-58
2020/12/29 01:22:15;;;;;;;23.60;13.32;;;;;;;;;;5030069;28;20029;-56
2020/12/29 01:24:41;;;;;;;28.92;14.65;;;;;;;;;;5029964;28;20412;-57
2020/12/29 01:27:07;;;;;;;23.33;13.40;;;;;;;;;;5030334;28;20032;-57
2020/12/29 01:29:33;;;;;;;27.00;13.38;;;;;;;;;;5029320;28;20018;-56
2020/12/29 01:31:59;;;;;;;24.05;13.68;;;;;;;;;;5029647;28;20034;-57
2020/12/29 01:34:25;;;;;;;23.55;13.35;;;;;;;;;;5032201;28;20087;-53
2020/12/29 01:36:51;;;;;;;25.25;14.00;;;;;;;;;;5029973;28;20117;-57
2020/12/29 01:39:18;;;;;;;25.15;14.05;;;;;;;;;;5029530;28;20037;-56
2020/12/29 01:41:44;;;;;;;28.38;14.43;;;;;;;;;;5026491;28;20392;-58
2020/12/29 01:44:17;;;;;;;24.00;13.20;;;;;;;;;;5028494;28;20029;-54
2020/12/29 01:46:44;;;;;;;22.80;13.60;;;;;;;;;;5029214;28;20025;-58
2020/12/29 01:49:10;;;;;;;22.50;12.63;;;;;;;;;;5029339;28;20723;-54
2020/12/29 01:51:36;;;;;;;23.27;13.63;;;;;;;;;;5029141;28;20041;-56
2020/12/29 01:54:02;;;;;;;27.02;14.60;;;;;;;;;;5029700;28;20022;-58
2020/12/29 01:56:32;;;;;;;25.45;14.38;;;;;;;;;;5028903;28;20029;-56
2020/12/29 01:58:58;;;;;;;28.05;15.18;;;;;;;;;;5028150;28;20033;-57
2020/12/29 02:01:25;;;;;;;25.98;15.70;;;;;;;;;;5028637;28;20040;-55
2020/12/29 02:03:51;;;;;;;27.38;15.13;;;;;;;;;;5029549;28;20036;-54
2020/12/29 02:06:17;;;;;;;27.20;16.05;;;;;;;;;;5028782;28;20033;-55
2020/12/29 02:08:43;;;;;;;26.13;15.07;;;;;;;;;;5029395;28;20075;-55
2020/12/29 02:11:09;;;;;;;29.17;15.20;;;;;;;;;;5029375;28;20026;-56
2020/12/29 02:13:39;;;;;;;27.85;16.17;;;;;;;;;;5023964;28;20060;-54
2020/12/29 02:16:05;;;;;;;28.45;15.02;;;;;;;;;;5028083;28;20160;-58
2020/12/29 02:18:31;;;;;;;35.17;17.65;;;;;;;;;;5029276;28;20033;-55
2020/12/29 02:20:57;;;;;;;29.80;17.25;;;;;;;;;;5028968;28;20029;-55
2020/12/29 02:23:23;;;;;;;27.40;16.88;;;;;;;;;;5028756;28;20021;-55
2020/12/29 02:25:49;;;;;;;27.88;16.55;;;;;;;;;;5029150;28;20039;-57
2020/12/29 02:28:15;;;;;;;33.00;16.40;;;;;;;;;;5028848;28;20037;-57
2020/12/29 02:30:41;;;;;;;26.75;15.68;;;;;;;;;;5028473;28;20071;-56
2020/12/29 02:33:07;;;;;;;33.08;17.60;;;;;;;;;;5029166;28;20049;-55
2020/12/29 02:35:33;;;;;;;27.98;16.90;;;;;;;;;;5049157;28;20025;-56
2020/12/29 02:37:59;;;;;;;30.08;16.35;;;;;;;;;;5039447;28;20026;-57
2020/12/29 02:40:25;;;;;;;30.67;16.25;;;;;;;;;;5023741;28;20050;-56
2020/12/29 02:42:51;;;;;;;25.48;14.70;;;;;;;;;;5025551;28;20042;-54
2020/12/29 02:45:17;;;;;;;34.88;16.40;;;;;;;;;;5028678;28;20389;-54
2020/12/29 02:47:43;;;;;;;27.92;16.83;;;;;;;;;;5027670;28;20411;-58
2020/12/29 02:50:09;;;;;;;35.30;16.27;;;;;;;;;;5028625;28;20503;-58
2020/12/29 02:52:35;;;;;;;31.88;16.77;;;;;;;;;;5027575;28;20029;-58
2020/12/29 02:55:01;;;;;;;32.60;17.73;;;;;;;;;;5028482;28;20049;-53
2020/12/29 02:57:27;;;;;;;32.40;17.98;;;;;;;;;;5028225;28;20021;-54
2020/12/29 02:59:53;;;;;;;31.77;18.00;;;;;;;;;;5028200;28;20033;-53
2020/12/29 03:02:19;;;;;;;31.70;18.25;;;;;;;;;;5027416;28;20051;-54
2020/12/29 03:04:45;;;;;;;36.17;18.33;;;;;;;;;;5028010;28;20586;-56
2020/12/29 03:07:12;;;;;;;39.35;19.90;;;;;;;;;;5028124;28;20392;-54
2020/12/29 03:09:38;;;;;;;38.38;18.95;;;;;;;;;;5027535;28;20029;-55
2020/12/29 03:12:04;;;;;;;33.45;18.92;;;;;;;;;;5021592;28;20366;-57
2020/12/29 03:14:30;;;;;;;35.70;19.63;;;;;;;;;;5008725;28;20113;-57
2020/12/29 03:16:56;;;;;;;35.25;19.90;;;;;;;;;;5022885;28;20400;-54
2020/12/29 03:19:22;;;;;;;35.08;18.58;;;;;;;;;;5027900;28;20428;-58
2020/12/29 03:21:48;;;;;;;38.13;20.10;;;;;;;;;;5026445;28;20385;-58
2020/12/29 03:24:15;;;;;;;37.60;19.13;;;;;;;;;;5027489;28;20044;-54
2020/12/29 03:26:41;;;;;;;35.67;19.60;;;;;;;;;;5027968;28;20029;-57
2020/12/29 03:29:07;;;;;;;33.05;18.58;;;;;;;;;;5027450;28;20104;-57
2020/12/29 03:31:33;;;;;;;40.22;20.15;;;;;;;;;;5027174;28;20216;-54
2020/12/29 03:34:00;;;;;;;35.45;18.98;;;;;;;;;;5034995;28;20033;-55
2020/12/29 03:36:26;;;;;;;32.33;17.67;;;;;;;;;;5047853;28;20083;-56
2020/12/29 03:38:52;;;;;;;38.60;18.88;;;;;;;;;;5041009;28;20029;-55
2020/12/29 03:41:18;;;;;;;31.55;18.05;;;;;;;;;;5027376;28;20053;-57
2020/12/29 03:43:43;;;;;;;36.10;19.63;;;;;;;;;;5020996;28;20025;-57
2020/12/29 03:46:10;;;;;;;34.53;17.65;;;;;;;;;;5027903;28;20025;-56
2020/12/29 03:48:36;;;;;;;32.50;18.52;;;;;;;;;;5027103;28;20031;-55
2020/12/29 03:51:02;;;;;;;39.45;19.15;;;;;;;;;;5027636;28;20034;-56
2020/12/29 03:53:28;;;;;;;33.05;18.70;;;;;;;;;;5027196;28;20028;-56
2020/12/29 03:55:53;;;;;;;36.15;19.52;;;;;;;;;;5027565;28;20112;-56
2020/12/29 03:58:19;;;;;;;37.55;20.08;;;;;;;;;;5027540;28;20037;-57
2020/12/29 04:00:45;;;;;;;36.67;19.70;;;;;;;;;;5027748;28;20025;-57
2020/12/29 04:03:11;;;;;;;37.65;20.35;;;;;;;;;;5026253;28;20083;-55
2020/12/29 04:05:37;;;;;;;36.15;20.77;;;;;;;;;;5027057;28;20025;-56
2020/12/29 04:08:03;;;;;;;40.65;20.45;;;;;;;;;;5027356;28;20441;-57
2020/12/29 04:10:29;;;;;;;38.20;20.35;;;;;;;;;;5027457;28;20463;-55
2020/12/29 04:12:55;;;;;;;38.40;20.23;;;;;;;;;;5014219;28;20022;-53
2020/12/29 04:15:21;;;;;;;39.83;20.77;;;;;;;;;;5021101;28;20029;-58
2020/12/29 04:17:47;;;;;;;36.75;20.75;;;;;;;;;;5027060;28;20029;-57
2020/12/29 04:20:14;;;;;;;37.40;20.38;;;;;;;;;;5026436;28;20033;-58
2020/12/29 04:22:41;;;;;;;40.85;21.80;;;;;;;;;;5027278;28;20029;-55
2020/12/29 04:25:07;;;;;;;38.30;20.55;;;;;;;;;;5026703;28;20022;-57
2020/12/29 04:27:34;;;;;;;32.72;19.27;;;;;;;;;;5026784;28;20053;-55
2020/12/29 04:30:00;;;;;;;38.25;20.08;;;;;;;;;;5027258;28;20072;-56
2020/12/29 04:32:26;;;;;;;38.65;21.67;;;;;;;;;;5026873;28;20530;-56
2020/12/29 04:34:52;;;;;;;40.33;20.88;;;;;;;;;;5033146;28;20033;-58
2020/12/29 04:37:17;;;;;;;36.25;20.02;;;;;;;;;;5026470;28;20026;-56
2020/12/29 04:39:44;;;;;;;40.63;22.17;;;;;;;;;;5029039;28;20109;-56
2020/12/29 04:42:14;;;;;;;38.08;20.52;;;;;;;;;;5023727;28;20541;-58
2020/12/29 04:44:41;;;;;;;52.67;26.17;;;;;;;;;;5025000;28;20523;-57
2020/12/29 04:47:07;;;;;;;37.53;21.80;;;;;;;;;;5025483;28;20520;-56
2020/12/29 04:49:34;;;;;;;41.60;21.08;;;;;;;;;;5031003;28;20099;-54
2020/12/29 04:52:02;;;;;;;31.60;18.70;;;;;;;;;;5030986;28;20029;-58
2020/12/29 04:54:31;;;;;;;39.60;20.10;;;;;;;;;;5030262;28;20391;-56
2020/12/29 04:56:57;;;;;;;42.03;21.73;;;;;;;;;;5030452;28;20030;-51
2020/12/29 04:59:23;;;;;;;40.78;22.02;;;;;;;;;;5030857;28;20025;-56
2020/12/29 05:01:49;;;;;;;38.22;21.35;;;;;;;;;;5030354;28;20031;-57
2020/12/29 05:04:16;;;;;;;43.80;23.48;;;;;;;;;;5030300;28;20476;-55
2020/12/29 05:06:42;;;;;;;40.85;22.27;;;;;;;;;;5030172;28;20032;-56
2020/12/29 05:09:08;;;;;;;45.65;24.58;;;;;;;;;;5030769;28;20353;-57
2020/12/29 05:11:35;;;;;;;42.33;23.55;;;;;;;;;;5028233;28;20018;-53
2020/12/29 05:14:04;;;;;;;44.60;23.75;;;;;;;;;;5013754;28;20029;-54
2020/12/29 05:16:30;;;;;;;43.78;23.75;;;;;;;;;;5029737;28;20022;-56
2020/12/29 05:18:59;;;;;;;48.60;24.75;;;;;;;;;;5029697;28;20037;-56
2020/12/29 05:21:25;;;;;;;47.22;25.60;;;;;;;;;;5029993;28;20037;-55
2020/12/29 05:23:51;;;;;;;48.70;25.13;;;;;;;;;;5029976;28;20068;-53
2020/12/29 05:26:17;;;;;;;48.38;26.27;;;;;;;;;;5029993;28;20049;-55
2020/12/29 05:28:45;;;;;;;43.55;24.38;;;;;;;;;;5029602;28;20080;-58
2020/12/29 05:31:11;;;;;;;48.28;25.40;;;;;;;;;;5029756;28;20049;-54
2020/12/29 05:33:37;;;;;;;53.00;25.80;;;;;;;;;;5034678;28;20036;-50
2020/12/29 05:36:04;;;;;;;46.80;24.65;;;;;;;;;;5039842;28;20026;-58
2020/12/29 05:38:30;;;;;;;48.20;24.30;;;;;;;;;;5029281;28;20110;-55
2020/12/29 05:40:56;;;;;;;52.85;25.85;;;;;;;;;;5029715;28;20053;-57
2020/12/29 05:43:29;;;;;;;46.70;24.55;;;;;;;;;;5026942;28;20048;-55
2020/12/29 05:45:57;;;;;;;45.38;24.35;;;;;;;;;;5029582;28;20045;-55
2020/12/29 05:48:23;;;;;;;47.65;23.75;;;;;;;;;;5029437;28;20022;-54
2020/12/29 05:50:49;;;;;;;46.90;24.10;;;;;;;;;;5028920;28;20472;-55
2020/12/29 05:53:19;;;;;;;45.33;24.58;;;;;;;;;;5029304;28;20029;-57
2020/12/29 05:55:45;;;;;;;45.08;24.42;;;;;;;;;;5029675;28;20040;-55
2020/12/29 05:58:11;;;;;;;45.17;24.45;;;;;;;;;;5029499;28;20124;-57
2020/12/29 06:00:41;;;;;;;47.28;24.85;;;;;;;;;;5028443;28;20116;-52
2020/12/29 06:03:08;;;;;;;46.70;23.77;;;;;;;;;;5028943;28;20083;-55
2020/12/29 06:05:35;;;;;;;46.35;24.80;;;;;;;;;;5029215;28;20362;-57
2020/12/29 06:08:08;;;;;;;46.15;24.33;;;;;;;;;;5029239;28;20029;-53
2020/12/29 06:10:34;;;;;;;;;;;;;;;;;;5029639;28;20026;-56
2020/12/29 06:13:01;;;;;;;49.55;24.77;;;;;;;;;;5015563;28;19952;-54
2020/12/29 06:15:31;;;;;;;48.83;25.02;;;;;;;;;;5012072;28;20060;-54
2020/12/29 06:17:59;;;;;;;44.38;22.85;;;;;;;;;;5026153;28;20026;-53
2020/12/29 06:20:30;;;;;;;51.45;26.52;;;;;;;;;;5029097;28;20384;-56
2020/12/29 06:23:00;;;;;;;47.63;24.35;;;;;;;;;;5029449;28;20052;-51
2020/12/29 06:25:29;;;;;;;46.80;24.48;;;;;;;;;;5029358;28;20029;-57
2020/12/29 06:27:58;;;;;;;45.65;23.42;;;;;;;;;;5028668;28;20021;-56
2020/12/29 06:30:24;;;;;;;46.00;23.63;;;;;;;;;;5028551;28;20026;-55
2020/12/29 06:32:51;;;;;;;46.78;24.27;;;;;;;;;;5028068;28;20083;-52
2020/12/29 06:35:17;;;;;;;47.22;21.65;;;;;;;;;;5036851;28;20040;-51
2020/12/29 06:37:45;;;;;;;43.63;22.92;;;;;;;;;;5028499;28;20026;-58
2020/12/29 06:40:12;;;;;;;41.05;22.05;;;;;;;;;;5027589;28;20110;-57
2020/12/29 06:42:39;;;;;;;38.47;20.85;;;;;;;;;;5019017;28;20821;-58
2020/12/29 06:45:08;;;;;;;38.55;20.30;;;;;;;;;;5028924;28;20030;-54
2020/12/29 06:47:37;;;;;;;35.40;19.73;;;;;;;;;;5027738;28;20500;-56
2020/12/29 06:50:19;;;;;;;37.72;20.77;;;;;;;;;;5027622;28;20056;-57
2020/12/29 06:52:52;;;;;;;40.88;21.63;;;;;;;;;;5028020;28;20037;-55
2020/12/29 06:55:19;;;;;;;33.35;18.50;;;;;;;;;;5027897;28;20116;-57
2020/12/29 06:57:46;;;;;;;36.85;19.85;;;;;;;;;;5028087;28;20473;-57
2020/12/29 07:00:13;;;;;;;33.50;18.60;;;;;;;;;;5028074;28;20404;-53
2020/12/29 07:02:39;;;;;;;34.85;19.30;;;;;;;;;;5026293;28;20044;-57
2020/12/29 07:05:15;;;;;;;40.45;21.40;;;;;;;;;;5028643;28;20029;-57
2020/12/29 07:07:51;;;;;;;35.63;19.33;;;;;;;;;;5028223;28;20041;-55
2020/12/29 07:10:18;;;;;;;33.40;19.30;;;;;;;;;;5027972;28;20033;-54
2020/12/29 07:12:51;;;;;;;36.05;19.73;;;;;;;;;;5023321;28;20117;-55
2020/12/29 07:15:19;;;;;;;35.30;21.10;;;;;;;;;;5027842;28;20033;-55
2020/12/29 07:17:56;;;;;;;34.53;20.17;;;;;;;;;;5027613;28;20385;-57
2020/12/29 07:20:23;;;;;;;37.15;21.65;;;;;;;;;;5027877;28;20062;-57
2020/12/29 07:22:56;;;;;;;35.05;21.10;;;;;;;;;;5024505;28;20368;-57
2020/12/29 07:25:24;;;;;;;36.70;20.23;;;;;;;;;;5028228;28;20025;-56
2020/12/29 07:27:50;;;;;;;38.47;21.17;;;;;;;;;;5012185;28;20196;-56
2020/12/29 07:30:17;;;;;;;39.42;21.85;;;;;;;;;;5013356;28;20025;-55
2020/12/29 07:32:43;;;;;;;40.15;22.65;;;;;;;;;;5024750;28;20029;-54
2020/12/29 07:35:09;;;;;;;48.50;26.52;;;;;;;;;;5025330;28;20091;-57
2020/12/29 07:37:35;;;;;;;46.17;23.02;;;;;;;;;;5027379;28;20025;-55
2020/12/29 07:40:01;;;;;;;39.78;20.60;;;;;;;;;;5019144;28;20030;-51
2020/12/29 07:42:27;;;;;;;38.15;20.13;;;;;;;;;;5010224;28;20120;-53
2020/12/29 07:44:53;;;;;;;30.70;17.15;;;;;;;;;;5027385;28;20356;-55
2020/12/29 07:47:19;;;;;;;31.15;17.60;;;;;;;;;;5027139;28;20045;-56
2020/12/29 07:49:45;;;;;;;34.88;18.73;;;;;;;;;;5027628;28;20416;-56
2020/12/29 07:52:21;;;;;;;36.65;19.00;;;;;;;;;;5027340;28;20480;-54
2020/12/29 07:54:47;;;;;;;32.75;18.25;;;;;;;;;;5026088;28;20113;-55
2020/12/29 07:57:13;;;;;;;36.60;18.90;;;;;;;;;;5027245;28;20048;-54
2020/12/29 07:59:39;;;;;;;37.97;19.05;;;;;;;;;;5027086;28;20720;-55
2020/12/29 08:02:08;;;;;;;37.72;21.63;;;;;;;;;;5027728;28;20033;-54
2020/12/29 08:04:34;;;;;;;36.05;20.00;;;;;;;;;;5024728;28;20092;-52
2020/12/29 08:07:09;;;;;;;36.72;21.15;;;;;;;;;;5025168;28;20057;-53
2020/12/29 08:09:45;;;;;;;55.72;30.38;;;;;;;;;;5025251;28;20021;-53
2020/12/29 08:12:11;;;;;;;46.22;24.80;;;;;;;;;;5017525;28;20087;-52
2020/12/29 08:14:40;;;;;;;40.53;23.10;;;;;;;;;;5025503;28;20423;-55
2020/12/29 08:17:07;;;;;;;36.05;20.13;;;;;;;;;;5026472;28;20670;-53
2020/12/29 08:19:33;;;;;;;32.58;18.17;;;;;;;;;;5020726;28;20828;-55
2020/12/29 08:22:03;;;;;;;31.33;17.63;;;;;;;;;;5027320;28;20026;-57
2020/12/29 08:24:30;;;;;;;28.60;16.45;;;;;;;;;;5027501;28;20029;-58
2020/12/29 08:26:59;;;;;;;36.55;20.23;;;;;;;;;;5017862;28;20030;-55
2020/12/29 08:29:25;;;;;;;40.42;18.83;;;;;;;;;;5026084;28;20021;-56
2020/12/29 08:32:10;;;;;;;32.75;18.20;;;;;;;;;;5026231;28;20045;-55
2020/12/29 08:34:37;;;;;;;32.70;19.30;;;;;;;;;;5027531;28;20053;-52
2020/12/29 08:37:04;;;;;;;31.23;17.23;;;;;;;;;;5026796;28;20033;-53
2020/12/29 08:39:53;;;;;;;34.05;20.13;;;;;;;;;;5026839;28;21011;-55
2020/12/29 08:42:20;;;;;;;37.13;21.02;;;;;;;;;;5025818;28;20098;-56
2020/12/29 08:44:46;;;;;;;35.10;20.42;;;;;;;;;;5021942;28;20465;-54
2020/12/29 08:47:13;;;;;;;30.88;17.77;;;;;;;;;;5027104;28;20581;-53
2020/12/29 08:49:39;;;;;;;31.30;17.23;;;;;;;;;;5026451;28;20036;-57
2020/12/29 08:52:05;;;;;;;35.00;17.67;;;;;;;;;;5020871;28;20040;-55
2020/12/29 08:54:36;;;;;;;31.17;16.95;;;;;;;;;;5026875;28;20033;-56
2020/12/29 08:57:02;;;;;;;27.83;16.45;;;;;;;;;;5023435;28;20108;-54
2020/12/29 08:59:39;;;;;;;30.60;17.30;;;;;;;;;;5017437;28;20373;-57
2020/12/29 09:02:05;;;;;;;29.05;16.95;;;;;;;;;;5024192;28;20029;-56
2020/12/29 09:04:31;;;;;;;33.03;18.48;;;;;;;;;;5016583;28;20037;-57
2020/12/29 09:07:01;;;;;;;37.63;20.63;;;;;;;;;;5026929;28;20048;-52
2020/12/29 09:09:28;;;;;;;39.65;21.48;;;;;;;;;;5026178;28;20022;-55
2020/12/29 09:12:08;;;;;;;39.28;20.38;;;;;;;;;;5022049;28;20124;-57
2020/12/29 09:14:34;;;;;;;34.97;19.20;;;;;;;;;;5025801;28;20030;-52
2020/12/29 09:17:04;;;;;;;34.05;18.75;;;;;;;;;;5039355;28;20060;-53
2020/12/29 09:19:30;;;;;;;35.38;18.67;;;;;;;;;;5029885;28;20029;-53
2020/12/29 09:22:03;;;;;;;35.53;18.55;;;;;;;;;;5026113;28;20025;-56
2020/12/29 09:24:29;;;;;;;37.58;20.95;;;;;;;;;;5026187;28;20064;-55
2020/12/29 09:26:55;;;;;;;46.38;26.63;;;;;;;;;;5027458;28;20468;-53
2020/12/29 09:29:21;;;;;;;36.20;20.42;;;;;;;;;;5030312;28;20030;-53
2020/12/29 09:31:54;;;;;;;35.70;20.48;;;;;;;;;;5030101;28;20018;-51
2020/12/29 09:34:20;;;;;;;40.92;20.67;;;;;;;;;;5032632;28;20021;-52
2020/12/29 09:36:46;;;;;;;34.05;20.42;;;;;;;;;;5029435;28;20881;-54
2020/12/29 09:39:12;;;;;;;38.30;20.20;;;;;;;;;;5030570;28;20036;-57
2020/12/29 09:41:39;;;;;;;34.58;19.75;;;;;;;;;;5024949;28;20120;-54
2020/12/29 09:44:05;;;;;;;32.67;19.42;;;;;;;;;;5024276;28;20053;-54
2020/12/29 09:46:34;;;;;;;33.70;18.02;;;;;;;;;;5026467;28;20027;-52
2020/12/29 09:49:00;;;;;;;35.78;19.55;;;;;;;;;;5025691;28;20049;-55
2020/12/29 09:51:26;;;;;;;32.50;18.95;;;;;;;;;;5028452;28;20026;-57
2020/12/29 09:53:52;;;;;;;33.92;18.60;;;;;;;;;;5028911;28;20037;-55
2020/12/29 09:56:22;;;;;;;36.75;19.35;;;;;;;;;;5028243;28;20040;-54
2020/12/29 09:58:48;;;;;;;32.33;17.45;;;;;;;;;;5025194;28;20033;-58
2020/12/29 10:01:14;;;;;;;32.75;18.10;;;;;;;;;;5029264;28;20088;-55
2020/12/29 10:03:40;;;;;;;31.17;18.77;;;;;;;;;;5028407;28;20116;-56
2020/12/29 10:06:06;;;;;;;30.48;17.33;;;;;;;;;;5024293;28;20052;-57
2020/12/29 10:08:32;;;;;;;26.73;15.73;;;;;;;;;;5027700;28;20040;-57
2020/12/29 10:10:58;;;;;;;27.73;16.63;;;;;;;;;;5026907;28;20444;-57
2020/12/29 10:13:24;;;;;;;28.52;14.77;;;;;;;;;;5014590;28;20108;-57
2020/12/29 10:15:51;;;;;;;30.33;16.58;;;;;;;;;;5028152;28;20033;-55
2020/12/29 10:18:17;;;;;;;27.38;15.75;;;;;;;;;;5026753;28;20087;-56
2020/12/29 10:20:43;;;;;;;26.10;15.73;;;;;;;;;;5014421;28;20413;-58
2020/12/29 10:23:09;;;;;;;26.25;14.82;;;;;;;;;;5010505;28;20025;-58
2020/12/29 10:25:35;;;;;;;37.88;20.52;;;;;;;;;;5028301;28;20033;-54
2020/12/29 10:28:00;;;;;;;29.75;15.65;;;;;;;;;;5028834;28;20034;-58
2020/12/29 10:30:26;;;;;;;25.63;14.43;;;;;;;;;;5025643;28;20037;-56
2020/12/29 10:32:52;;;;;;;28.85;14.90;;;;;;;;;;5022314;28;20039;-57
2020/12/29 10:35:18;;;;;;;25.60;15.07;;;;;;;;;;5027953;28;20044;-57
2020/12/29 10:37:45;;;;;;;29.85;15.50;;;;;;;;;;5027921;28;20116;-58
2020/12/29 10:40:11;;;;;;;25.20;15.68;;;;;;;;;;5028013;28;20048;-56
2020/12/29 10:42:37;;;;;;;24.92;14.65;;;;;;;;;;5027370;28;20025;-56
2020/12/29 10:45:03;;;;;;;25.42;14.57;;;;;;;;;;5028436;28;20029;-56
2020/12/29 10:47:29;;;;;;;29.33;15.60;;;;;;;;;;5020878;28;20057;-57
2020/12/29 10:49:55;;;;;;;26.95;15.05;;;;;;;;;;5020412;28;20025;-54
2020/12/29 10:52:21;;;;;;;23.73;14.18;;;;;;;;;;5020651;28;20553;-55
2020/12/29 10:54:47;;;;;;;20.50;14.27;;;;;;;;;;5027518;28;20030;-54
2020/12/29 10:57:13;;;;;;;21.73;13.35;;;;;;;;;;5022604;28;20029;-56
2020/12/29 10:59:39;;;;;;;25.73;15.27;;;;;;;;;;5013591;28;20049;-57
2020/12/29 11:02:05;;;;;;;38.92;22.77;;;;;;;;;;5023127;28;20038;-55
2020/12/29 11:04:31;;;;;;;36.90;21.13;;;;;;;;;;5013001;28;20478;-54
2020/12/29 11:06:57;;;;;;;28.50;14.50;;;;;;;;;;5017368;28;20038;-58
2020/12/29 11:09:23;;;;;;;24.08;14.25;;;;;;;;;;5020298;28;20022;-57
2020/12/29 11:11:49;;;;;;;179.13;99.78;;;;;;;;;;5026019;28;20044;-58
2020/12/29 11:14:15;;;;;;;137.48;71.82;;;;;;;;;;5027147;28;20042;-56
2020/12/29 11:16:41;;;;;;;22.27;12.45;;;;;;;;;;5020955;28;20084;-55
2020/12/29 11:19:07;;;;;;;21.48;13.15;;;;;;;;;;5022752;28;20041;-54
2020/12/29 11:21:33;;;;;;;19.27;11.82;;;;;;;;;;5016869;28;20529;-57
2020/12/29 11:23:59;;;;;;;24.35;13.50;;;;;;;;;;5023472;28;20033;-52
2020/12/29 11:26:25;;;;;;;22.63;12.10;;;;;;;;;;5015031;28;20020;-58
2020/12/29 11:28:51;;;;;;;22.35;12.23;;;;;;;;;;5021344;28;20029;-57
2020/12/29 11:31:18;;;;;;;17.88;11.32;;;;;;;;;;5026080;28;20029;-55
2020/12/29 11:33:44;;;;;;;22.85;11.90;;;;;;;;;;5016452;28;20378;-55
2020/12/29 11:36:11;;;;;;;18.08;11.35;;;;;;;;;;5015555;28;20053;-52
2020/12/29 11:38:37;;;;;;;20.15;11.90;;;;;;;;;;5013805;28;20489;-58
2020/12/29 11:41:03;;;;;;;19.40;10.90;;;;;;;;;;5018921;28;20129;-54
2020/12/29 11:43:29;;;;;;;23.48;11.98;;;;;;;;;;5007568;28;20048;-54
2020/12/29 11:45:55;;;;;;;20.30;11.75;;;;;;;;;;5021845;28;20033;-57
2020/12/29 11:48:21;;;;;;;48.42;29.77;;;;;;;;;;5017753;28;20026;-56
2020/12/29 11:50:47;;;;;;;22.05;11.73;;;;;;;;;;5023505;28;20527;-58
2020/12/29 11:53:13;;;;;;;25.83;14.18;;;;;;;;;;5019861;28;20633;-54
2020/12/29 11:55:39;;;;;;;19.50;12.00;;;;;;;;;;5022516;28;20029;-56
2020/12/29 11:58:05;;;;;;;23.17;12.18;;;;;;;;;;5026178;28;20033;-55
2020/12/29 12:00:31;;;;;;;24.95;12.52;;;;;;;;;;5021886;28;20139;-58
2020/12/29 12:02:57;;;;;;;67.80;35.58;;;;;;;;;;5029550;28;20640;-57
2020/12/29 12:05:23;;;;;;;23.58;13.43;;;;;;;;;;5024109;28;20024;-56
2020/12/29 12:07:49;;;;;;;18.88;11.00;;;;;;;;;;5029487;28;20033;-55
2020/12/29 12:10:15;;;;;;;20.65;11.88;;;;;;;;;;5026623;28;20025;-58
2020/12/29 12:12:41;;;;;;;19.80;11.55;;;;;;;;;;5024932;28;20033;-56
2020/12/29 12:15:07;;;;;;;18.73;11.88;;;;;;;;;;5026488;28;20052;-55
2020/12/29 12:17:33;;;;;;;19.88;10.95;;;;;;;;;;5008351;28;20254;-55
2020/12/29 12:19:59;;;;;;;17.48;11.02;;;;;;;;;;5024362;28;20037;-58
2020/12/29 12:22:25;;;;;;;18.20;11.43;;;;;;;;;;5025963;28;20048;-56
2020/12/29 12:24:51;;;;;;;18.05;10.57;;;;;;;;;;5027204;28;20025;-54
2020/12/29 12:27:17;;;;;;;18.90;10.90;;;;;;;;;;5024184;28;20413;-57
2020/12/29 12:29:43;;;;;;;17.17;10.63;;;;;;;;;;5025340;28;20112;-54
2020/12/29 12:32:09;;;;;;;18.25;10.52;;;;;;;;;;5026287;28;20030;-53
2020/12/29 12:34:35;;;;;;;14.88;9.32;;;;;;;;;;5026981;28;20038;-57
2020/12/29 12:37:01;;;;;;;47.50;26.90;;;;;;;;;;5026401;28;20470;-56
2020/12/29 12:39:27;;;;;;;22.67;12.75;;;;;;;;;;5026691;28;20469;-56
2020/12/29 12:41:53;;;;;;;18.30;11.02;;;;;;;;;;5023508;28;20615;-55
2020/12/29 12:44:19;;;;;;;17.40;11.00;;;;;;;;;;5026059;28;20064;-54
2020/12/29 12:46:45;;;;;;;17.60;9.90;;;;;;;;;;5022124;28;20513;-58
2020/12/29 12:49:11;;;;;;;16.98;10.00;;;;;;;;;;5017475;28;20021;-56
2020/12/29 12:51:37;;;;;;;18.27;9.80;;;;;;;;;;5024114;28;20091;-56
2020/12/29 12:54:03;;;;;;;15.23;9.25;;;;;;;;;;5008760;28;20793;-58
2020/12/29 12:56:30;;;;;;;16.58;9.50;;;;;;;;;;5025551;28;20033;-57
2020/12/29 12:58:57;;;;;;;13.90;8.75;;;;;;;;;;5023718;28;20068;-56
2020/12/29 13:01:23;;;;;;;14.90;9.27;;;;;;;;;;5022617;28;20463;-57
2020/12/29 13:03:49;;;;;;;15.13;8.52;;;;;;;;;;5029696;28;20033;-57
2020/12/29 13:06:27;;;;;;;14.90;8.82;;;;;;;;;;5015832;28;20096;-54
2020/12/29 13:08:53;;;;;;;14.45;8.40;;;;;;;;;;5029869;28;20037;-57
2020/12/29 13:11:19;;;;;;;11.98;7.72;;;;;;;;;;5030166;28;20385;-56
2020/12/29 13:13:46;;;;;;;13.32;7.53;;;;;;;;;;5024447;28;20033;-53
2020/12/29 13:16:12;;;;;;;11.23;7.50;;;;;;;;;;5029037;28;20041;-58
2020/12/29 13:18:38;;;;;;;14.02;8.32;;;;;;;;;;5012860;28;20103;-57
2020/12/29 13:21:04;;;;;;;16.77;8.02;;;;;;;;;;5028602;28;20026;-57
2020/12/29 13:23:30;;;;;;;13.20;7.85;;;;;;;;;;5029807;28;20030;-56
2020/12/29 13:25:56;;;;;;;14.70;7.57;;;;;;;;;;5010506;28;20041;-57
2020/12/29 13:28:22;;;;;;;12.85;7.68;;;;;;;;;;5022552;28;20037;-52
2020/12/29 13:30:48;;;;;;;11.15;7.72;;;;;;;;;;5023082;28;20037;-56
2020/12/29 13:33:14;;;;;;;12.98;8.52;;;;;;;;;;5029731;28;20021;-57
2020/12/29 13:35:40;;;;;;;13.52;7.97;;;;;;;;;;5030152;28;20035;-58
2020/12/29 13:38:06;;;;;;;10.95;6.30;;;;;;;;;;5029115;28;20029;-57
2020/12/29 13:40:32;;;;;;;13.02;8.60;;;;;;;;;;5029603;28;20061;-56
2020/12/29 13:42:58;;;;;;;10.43;6.35;;;;;;;;;;5030133;28;20041;-56
2020/12/29 13:45:25;;;;;;;12.07;6.25;;;;;;;;;;5024610;28;20087;-56
2020/12/29 13:47:51;;;;;;;10.32;6.88;;;;;;;;;;5026021;28;20030;-56
2020/12/29 13:50:17;;;;;;;9.75;6.88;;;;;;;;;;5021201;28;20033;-53
2020/12/29 13:52:43;;;;;;;12.88;7.50;;;;;;;;;;5029115;28;20037;-55
2020/12/29 13:55:09;;;;;;;12.50;7.10;;;;;;;;;;5029681;28;20104;-55
2020/12/29 13:57:35;;;;;;;12.82;7.22;;;;;;;;;;5027617;28;20037;-57
2020/12/29 14:00:01;;;;;;;11.32;7.75;;;;;;;;;;5028653;28;20037;-55
2020/12/29 14:02:26;;;;;;;12.13;7.57;;;;;;;;;;5025464;28;20628;-57
2020/12/29 14:04:52;;;;;;;11.65;6.80;;;;;;;;;;5026047;28;20040;-56
2020/12/29 14:07:18;;;;;;;10.90;6.72;;;;;;;;;;5027338;28;20029;-55
2020/12/29 14:09:44;;;;;;;14.05;8.82;;;;;;;;;;5023951;28;20033;-58
2020/12/29 14:12:10;;;;;;;11.48;7.18;;;;;;;;;;5028170;28;20072;-57
2020/12/29 14:14:36;;;;;;;12.02;7.45;;;;;;;;;;5026069;28;20028;-55
2020/12/29 14:17:02;;;;;;;11.93;7.28;;;;;;;;;;5025491;28;20040;-57